sensor_id;sensor_type;location;lat;lon;timestamp;pressure;altitude;pressure_sealevel;temperature;humidity
61359;BME280;47228;46.762;23.598;2022-11-14T00:01:21;98410.21;;;2.81;90.88
61359;BME280;47228;46.762;23.598;2022-11-14T00:03:49;98406.73;;;2.86;90.78
61359;BME280;47228;46.762;23.598;2022-11-14T00:06:18;98408.21;;;2.87;90.39
61359;BME280;47228;46.762;23.598;2022-11-14T00:08:47;98409.60;;;2.89;90.96
61359;BME280;47228;46.762;23.598;2022-11-14T00:11:14;98409.89;;;2.94;91.14
61359;BME280;47228;46.762;23.598;2022-11-14T00:13:42;98406.84;;;2.97;90.86
61359;BME280;47228;46.762;23.598;2022-11-14T00:16:10;98406.39;;;3.01;90.63
61359;BME280;47228;46.762;23.598;2022-11-14T00:18:38;98411.23;;;2.96;89.78
61359;BME280;47228;46.762;23.598;2022-11-14T00:21:06;98412.85;;;2.94;90.06
61359;BME280;47228;46.762;23.598;2022-11-14T00:23:34;98417.21;;;2.94;90.52
61359;BME280;47228;46.762;23.598;2022-11-14T00:26:02;98417.58;;;2.94;90.29
61359;BME280;47228;46.762;23.598;2022-11-14T00:28:30;98416.14;;;2.95;90.27
61359;BME280;47228;46.762;23.598;2022-11-14T00:30:58;98414.39;;;2.92;89.69
61359;BME280;47228;46.762;23.598;2022-11-14T00:33:26;98411.80;;;2.88;89.78
61359;BME280;47228;46.762;23.598;2022-11-14T00:35:55;98411.80;;;2.86;90.12
61359;BME280;47228;46.762;23.598;2022-11-14T00:38:23;98408.10;;;2.84;90.00
61359;BME280;47228;46.762;23.598;2022-11-14T00:40:51;98406.41;;;2.83;89.96
61359;BME280;47228;46.762;23.598;2022-11-14T00:43:19;98407.44;;;2.83;89.83
61359;BME280;47228;46.762;23.598;2022-11-14T00:45:47;98408.80;;;2.84;89.77
61359;BME280;47228;46.762;23.598;2022-11-14T00:48:15;98409.98;;;2.84;89.99
61359;BME280;47228;46.762;23.598;2022-11-14T00:50:43;98407.91;;;2.82;89.63
61359;BME280;47228;46.762;23.598;2022-11-14T00:53:11;98403.38;;;2.78;89.33
61359;BME280;47228;46.762;23.598;2022-11-14T00:55:41;98404.03;;;2.71;89.08
61359;BME280;47228;46.762;23.598;2022-11-14T00:58:09;98400.64;;;2.64;89.11
61359;BME280;47228;46.762;23.598;2022-11-14T01:00:37;98400.36;;;2.57;89.11
61359;BME280;47228;46.762;23.598;2022-11-14T01:03:06;98402.73;;;2.53;89.63
61359;BME280;47228;46.762;23.598;2022-11-14T01:05:39;98401.20;;;2.51;89.78
61359;BME280;47228;46.762;23.598;2022-11-14T01:08:07;98402.52;;;2.47;89.49
61359;BME280;47228;46.762;23.598;2022-11-14T01:10:43;98402.42;;;2.44;89.69
61359;BME280;47228;46.762;23.598;2022-11-14T01:13:13;98401.27;;;2.41;89.84
61359;BME280;47228;46.762;23.598;2022-11-14T01:15:46;98400.80;;;2.36;89.35
61359;BME280;47228;46.762;23.598;2022-11-14T01:18:16;98401.64;;;2.30;89.30
61359;BME280;47228;46.762;23.598;2022-11-14T01:20:47;98406.10;;;2.26;89.67
61359;BME280;47228;46.762;23.598;2022-11-14T01:23:16;98400.95;;;2.25;89.81
61359;BME280;47228;46.762;23.598;2022-11-14T01:25:44;98399.70;;;2.26;90.01
61359;BME280;47228;46.762;23.598;2022-11-14T01:28:14;98398.44;;;2.26;90.02
61359;BME280;47228;46.762;23.598;2022-11-14T01:30:42;98393.56;;;2.28;90.26
61359;BME280;47228;46.762;23.598;2022-11-14T01:33:10;98391.59;;;2.30;90.18
61359;BME280;47228;46.762;23.598;2022-11-14T01:35:38;98388.14;;;2.30;89.58
61359;BME280;47228;46.762;23.598;2022-11-14T01:38:10;98383.69;;;2.25;89.17
61359;BME280;47228;46.762;23.598;2022-11-14T01:40:44;98380.45;;;2.19;89.09
61359;BME280;47228;46.762;23.598;2022-11-14T01:53:42;98370.46;;;2.22;89.91
61359;BME280;47228;46.762;23.598;2022-11-14T01:56:14;98372.27;;;2.23;89.99
61359;BME280;47228;46.762;23.598;2022-11-14T01:58:49;98379.87;;;2.24;89.85
61359;BME280;47228;46.762;23.598;2022-11-14T02:01:19;98380.04;;;2.27;90.11
61359;BME280;47228;46.762;23.598;2022-11-14T02:03:49;98376.15;;;2.29;90.02
61359;BME280;47228;46.762;23.598;2022-11-14T02:06:19;98376.55;;;2.31;89.94
61359;BME280;47228;46.762;23.598;2022-11-14T02:08:48;98375.27;;;2.32;89.81
61359;BME280;47228;46.762;23.598;2022-11-14T02:11:17;98377.55;;;2.29;89.39
61359;BME280;47228;46.762;23.598;2022-11-14T02:13:45;98376.21;;;2.26;89.24
61359;BME280;47228;46.762;23.598;2022-11-14T02:16:14;98374.27;;;2.22;89.32
61359;BME280;47228;46.762;23.598;2022-11-14T02:18:42;98378.23;;;2.19;89.42
61359;BME280;47228;46.762;23.598;2022-11-14T02:21:10;98377.40;;;2.16;89.56
61359;BME280;47228;46.762;23.598;2022-11-14T02:23:37;98381.41;;;2.15;89.36
61359;BME280;47228;46.762;23.598;2022-11-14T02:26:05;98380.46;;;2.14;89.60
61359;BME280;47228;46.762;23.598;2022-11-14T02:28:33;98382.91;;;2.12;89.30
61359;BME280;47228;46.762;23.598;2022-11-14T02:31:01;98379.41;;;2.10;89.34
61359;BME280;47228;46.762;23.598;2022-11-14T02:33:29;98377.27;;;2.11;89.56
61359;BME280;47228;46.762;23.598;2022-11-14T02:35:57;98377.34;;;2.12;89.81
61359;BME280;47228;46.762;23.598;2022-11-14T02:38:25;98374.70;;;2.14;89.93
61359;BME280;47228;46.762;23.598;2022-11-14T02:40:53;98380.52;;;2.16;89.68
61359;BME280;47228;46.762;23.598;2022-11-14T02:43:21;98378.30;;;2.15;89.17
61359;BME280;47228;46.762;23.598;2022-11-14T02:45:49;98375.73;;;2.13;89.08
61359;BME280;47228;46.762;23.598;2022-11-14T02:48:17;98372.94;;;2.08;89.22
61359;BME280;47228;46.762;23.598;2022-11-14T02:50:48;98370.98;;;2.04;89.23
61359;BME280;47228;46.762;23.598;2022-11-14T02:53:16;98370.27;;;2.00;89.02
61359;BME280;47228;46.762;23.598;2022-11-14T02:55:44;98370.58;;;1.98;89.32
61359;BME280;47228;46.762;23.598;2022-11-14T02:58:12;98367.32;;;1.98;89.53
61359;BME280;47228;46.762;23.598;2022-11-14T03:00:40;98365.66;;;1.97;89.30
61359;BME280;47228;46.762;23.598;2022-11-14T03:03:27;98364.28;;;1.94;89.57
61359;BME280;47228;46.762;23.598;2022-11-14T03:05:59;98358.77;;;1.91;89.09
61359;BME280;47228;46.762;23.598;2022-11-14T03:08:28;98356.02;;;1.86;88.82
61359;BME280;47228;46.762;23.598;2022-11-14T03:11:06;98351.40;;;1.82;88.93
61359;BME280;47228;46.762;23.598;2022-11-14T03:13:35;98348.48;;;1.79;88.99
61359;BME280;47228;46.762;23.598;2022-11-14T03:16:10;98342.35;;;1.77;89.50
61359;BME280;47228;46.762;23.598;2022-11-14T03:18:39;98345.10;;;1.80;90.01
61359;BME280;47228;46.762;23.598;2022-11-14T03:21:10;98349.38;;;1.84;90.18
61359;BME280;47228;46.762;23.598;2022-11-14T03:23:39;98349.15;;;1.89;90.30
61359;BME280;47228;46.762;23.598;2022-11-14T03:26:09;98347.92;;;1.93;90.44
61359;BME280;47228;46.762;23.598;2022-11-14T03:28:38;98346.79;;;1.97;90.23
61359;BME280;47228;46.762;23.598;2022-11-14T03:31:07;98346.77;;;1.99;90.13
61359;BME280;47228;46.762;23.598;2022-11-14T03:33:35;98348.04;;;2.00;90.00
61359;BME280;47228;46.762;23.598;2022-11-14T03:36:04;98345.64;;;2.00;89.95
61359;BME280;47228;46.762;23.598;2022-11-14T03:38:33;98346.79;;;1.96;89.60
61359;BME280;47228;46.762;23.598;2022-11-14T03:41:01;98343.96;;;1.92;89.23
61359;BME280;47228;46.762;23.598;2022-11-14T03:43:31;98344.02;;;1.87;89.14
61359;BME280;47228;46.762;23.598;2022-11-14T03:46:00;98340.87;;;1.83;89.07
61359;BME280;47228;46.762;23.598;2022-11-14T03:48:29;98341.48;;;1.77;89.36
61359;BME280;47228;46.762;23.598;2022-11-14T03:50:58;98342.25;;;1.74;89.52
61359;BME280;47228;46.762;23.598;2022-11-14T03:53:26;98334.08;;;1.69;89.19
61359;BME280;47228;46.762;23.598;2022-11-14T03:55:55;98333.22;;;1.65;88.95
61359;BME280;47228;46.762;23.598;2022-11-14T03:58:23;98331.42;;;1.61;88.86
61359;BME280;47228;46.762;23.598;2022-11-14T04:00:50;98333.17;;;1.56;88.77
61359;BME280;47228;46.762;23.598;2022-11-14T04:03:18;98336.87;;;1.51;88.84
61359;BME280;47228;46.762;23.598;2022-11-14T04:05:47;98338.63;;;1.47;88.68
61359;BME280;47228;46.762;23.598;2022-11-14T04:08:15;98335.38;;;1.39;88.61
61359;BME280;47228;46.762;23.598;2022-11-14T04:10:46;98336.04;;;1.35;88.69
61359;BME280;47228;46.762;23.598;2022-11-14T04:13:15;98331.59;;;1.32;88.94
61359;BME280;47228;46.762;23.598;2022-11-14T04:15:43;98330.30;;;1.30;89.00
61359;BME280;47228;46.762;23.598;2022-11-14T04:18:11;98333.23;;;1.28;89.02
61359;BME280;47228;46.762;23.598;2022-11-14T04:20:39;98333.19;;;1.27;89.06
61359;BME280;47228;46.762;23.598;2022-11-14T04:23:06;98331.82;;;1.24;88.96
61359;BME280;47228;46.762;23.598;2022-11-14T04:25:34;98334.36;;;1.21;88.95
61359;BME280;47228;46.762;23.598;2022-11-14T04:28:03;98331.41;;;1.18;89.08
61359;BME280;47228;46.762;23.598;2022-11-14T04:30:30;98332.89;;;1.17;89.38
61359;BME280;47228;46.762;23.598;2022-11-14T04:33:01;98332.08;;;1.16;89.31
61359;BME280;47228;46.762;23.598;2022-11-14T04:35:29;98333.10;;;1.14;89.43
61359;BME280;47228;46.762;23.598;2022-11-14T04:37:57;98333.63;;;1.14;89.94
61359;BME280;47228;46.762;23.598;2022-11-14T04:40:25;98329.91;;;1.17;90.06
61359;BME280;47228;46.762;23.598;2022-11-14T04:42:53;98328.69;;;1.17;89.55
61359;BME280;47228;46.762;23.598;2022-11-14T04:45:21;98325.06;;;1.17;89.62
61359;BME280;47228;46.762;23.598;2022-11-14T04:47:49;98324.99;;;1.15;89.25
61359;BME280;47228;46.762;23.598;2022-11-14T04:50:17;98325.09;;;1.12;89.37
61359;BME280;47228;46.762;23.598;2022-11-14T04:52:45;98323.84;;;1.10;89.61
61359;BME280;47228;46.762;23.598;2022-11-14T04:55:13;98326.08;;;1.08;89.64
61359;BME280;47228;46.762;23.598;2022-11-14T04:57:40;98322.81;;;1.07;89.89
61359;BME280;47228;46.762;23.598;2022-11-14T05:00:09;98321.04;;;1.08;89.95
61359;BME280;47228;46.762;23.598;2022-11-14T05:02:37;98316.21;;;1.07;90.13
61359;BME280;47228;46.762;23.598;2022-11-14T05:05:05;98320.81;;;1.06;89.77
61359;BME280;47228;46.762;23.598;2022-11-14T05:07:33;98322.70;;;0.95;89.06
61359;BME280;47228;46.762;23.598;2022-11-14T05:10:01;98323.28;;;0.85;89.14
61359;BME280;47228;46.762;23.598;2022-11-14T05:12:29;98324.41;;;0.81;90.11
61359;BME280;47228;46.762;23.598;2022-11-14T05:14:57;98325.23;;;0.84;90.79
61359;BME280;47228;46.762;23.598;2022-11-14T05:17:26;98329.54;;;0.87;90.93
61359;BME280;47228;46.762;23.598;2022-11-14T05:19:54;98329.67;;;0.90;90.79
61359;BME280;47228;46.762;23.598;2022-11-14T05:22:22;98333.34;;;0.93;90.76
61359;BME280;47228;46.762;23.598;2022-11-14T05:24:50;98332.66;;;0.95;90.88
61359;BME280;47228;46.762;23.598;2022-11-14T05:27:18;98337.63;;;0.96;90.82
61359;BME280;47228;46.762;23.598;2022-11-14T05:29:45;98333.38;;;0.99;91.22
61359;BME280;47228;46.762;23.598;2022-11-14T05:32:15;98331.41;;;1.00;90.71
61359;BME280;47228;46.762;23.598;2022-11-14T05:34:43;98327.77;;;0.93;90.27
61359;BME280;47228;46.762;23.598;2022-11-14T05:37:11;98326.81;;;0.89;90.52
61359;BME280;47228;46.762;23.598;2022-11-14T05:39:39;98327.40;;;0.90;91.16
61359;BME280;47228;46.762;23.598;2022-11-14T05:42:10;98320.73;;;0.94;91.71
61359;BME280;47228;46.762;23.598;2022-11-14T05:44:37;98321.91;;;0.98;92.07
61359;BME280;47228;46.762;23.598;2022-11-14T05:47:05;98325.23;;;1.03;91.88
61359;BME280;47228;46.762;23.598;2022-11-14T05:49:33;98332.20;;;1.07;92.02
61359;BME280;47228;46.762;23.598;2022-11-14T05:52:01;98335.26;;;1.13;92.26
61359;BME280;47228;46.762;23.598;2022-11-14T05:54:29;98338.91;;;1.21;92.30
61359;BME280;47228;46.762;23.598;2022-11-14T05:56:57;98343.71;;;1.22;91.63
61359;BME280;47228;46.762;23.598;2022-11-14T05:59:25;98346.05;;;1.21;91.14
61359;BME280;47228;46.762;23.598;2022-11-14T06:01:54;98346.95;;;1.20;90.93
61359;BME280;47228;46.762;23.598;2022-11-14T06:04:24;98346.55;;;1.21;90.87
61359;BME280;47228;46.762;23.598;2022-11-14T06:06:52;98343.86;;;1.20;90.43
61359;BME280;47228;46.762;23.598;2022-11-14T06:09:20;98341.38;;;1.15;90.10
61359;BME280;47228;46.762;23.598;2022-11-14T06:11:48;98340.41;;;1.12;90.06
61359;BME280;47228;46.762;23.598;2022-11-14T06:14:16;98342.99;;;1.10;90.24
61359;BME280;47228;46.762;23.598;2022-11-14T06:16:44;98342.91;;;1.09;90.21
61359;BME280;47228;46.762;23.598;2022-11-14T06:19:11;98344.84;;;1.04;89.45
61359;BME280;47228;46.762;23.598;2022-11-14T06:21:39;98345.29;;;0.96;89.04
61359;BME280;47228;46.762;23.598;2022-11-14T06:24:07;98342.45;;;0.90;89.12
61359;BME280;47228;46.762;23.598;2022-11-14T06:26:35;98339.88;;;0.82;88.89
61359;BME280;47228;46.762;23.598;2022-11-14T06:29:03;98338.45;;;0.76;89.50
61359;BME280;47228;46.762;23.598;2022-11-14T06:31:31;98338.06;;;0.76;90.10
61359;BME280;47228;46.762;23.598;2022-11-14T06:33:59;98337.30;;;0.77;90.06
61359;BME280;47228;46.762;23.598;2022-11-14T06:36:28;98339.06;;;0.79;90.34
61359;BME280;47228;46.762;23.598;2022-11-14T06:38:57;98340.55;;;0.82;90.50
61359;BME280;47228;46.762;23.598;2022-11-14T06:41:24;98337.00;;;0.86;90.19
61359;BME280;47228;46.762;23.598;2022-11-14T06:43:52;98338.48;;;0.87;90.21
61359;BME280;47228;46.762;23.598;2022-11-14T06:46:22;98340.16;;;0.83;89.37
61359;BME280;47228;46.762;23.598;2022-11-14T06:48:49;98342.48;;;0.78;89.27
61359;BME280;47228;46.762;23.598;2022-11-14T06:51:19;98346.41;;;0.76;89.51
61359;BME280;47228;46.762;23.598;2022-11-14T06:53:47;98349.85;;;0.74;89.58
61359;BME280;47228;46.762;23.598;2022-11-14T06:56:16;98352.30;;;0.74;90.01
61359;BME280;47228;46.762;23.598;2022-11-14T06:58:46;98354.66;;;0.76;90.21
61359;BME280;47228;46.762;23.598;2022-11-14T07:01:17;98354.21;;;0.79;90.47
61359;BME280;47228;46.762;23.598;2022-11-14T07:03:46;98356.41;;;0.83;90.29
61359;BME280;47228;46.762;23.598;2022-11-14T07:06:16;98355.39;;;0.83;89.61
61359;BME280;47228;46.762;23.598;2022-11-14T07:08:45;98357.23;;;0.81;89.90
61359;BME280;47228;46.762;23.598;2022-11-14T07:11:16;98353.73;;;0.76;89.32
61359;BME280;47228;46.762;23.598;2022-11-14T07:16:23;98351.52;;;0.69;89.35
61359;BME280;47228;46.762;23.598;2022-11-14T07:18:52;98353.09;;;0.66;89.27
61359;BME280;47228;46.762;23.598;2022-11-14T07:21:20;98349.71;;;0.62;89.18
61359;BME280;47228;46.762;23.598;2022-11-14T07:23:48;98347.02;;;0.59;89.21
61359;BME280;47228;46.762;23.598;2022-11-14T07:26:16;98344.25;;;0.56;89.37
61359;BME280;47228;46.762;23.598;2022-11-14T07:28:44;98342.72;;;0.58;89.80
61359;BME280;47228;46.762;23.598;2022-11-14T07:31:20;98343.61;;;0.60;89.76
61359;BME280;47228;46.762;23.598;2022-11-14T07:33:48;98342.70;;;0.63;89.59
61359;BME280;47228;46.762;23.598;2022-11-14T07:36:16;98343.35;;;0.66;89.70
61359;BME280;47228;46.762;23.598;2022-11-14T07:38:44;98339.60;;;0.67;89.52
61359;BME280;47228;46.762;23.598;2022-11-14T07:41:14;98338.52;;;0.68;89.24
61359;BME280;47228;46.762;23.598;2022-11-14T07:43:42;98338.81;;;0.66;88.60
61359;BME280;47228;46.762;23.598;2022-11-14T07:46:13;98340.14;;;0.65;88.91
61359;BME280;47228;46.762;23.598;2022-11-14T07:48:42;98345.12;;;0.61;88.33
61359;BME280;47228;46.762;23.598;2022-11-14T07:51:15;98346.11;;;0.57;88.55
61359;BME280;47228;46.762;23.598;2022-11-14T07:53:43;98345.92;;;0.57;88.80
61359;BME280;47228;46.762;23.598;2022-11-14T07:56:11;98342.34;;;0.54;88.34
61359;BME280;47228;46.762;23.598;2022-11-14T07:58:40;98339.21;;;0.54;88.66
61359;BME280;47228;46.762;23.598;2022-11-14T08:01:10;98339.23;;;0.58;89.28
61359;BME280;47228;46.762;23.598;2022-11-14T08:03:39;98335.30;;;0.62;89.52
61359;BME280;47228;46.762;23.598;2022-11-14T08:06:13;98332.16;;;0.64;89.39
61359;BME280;47228;46.762;23.598;2022-11-14T08:08:42;98333.85;;;0.64;89.34
61359;BME280;47228;46.762;23.598;2022-11-14T08:11:10;98336.70;;;0.63;89.04
61359;BME280;47228;46.762;23.598;2022-11-14T08:13:38;98335.50;;;0.66;89.30
61359;BME280;47228;46.762;23.598;2022-11-14T08:16:08;98332.63;;;0.72;89.63
61359;BME280;47228;46.762;23.598;2022-11-14T08:18:40;98336.11;;;0.76;89.39
61359;BME280;47228;46.762;23.598;2022-11-14T08:21:08;98335.09;;;0.76;89.29
61359;BME280;47228;46.762;23.598;2022-11-14T08:23:36;98332.57;;;0.75;89.34
61359;BME280;47228;46.762;23.598;2022-11-14T08:26:05;98331.64;;;0.69;89.15
61359;BME280;47228;46.762;23.598;2022-11-14T08:28:33;98327.47;;;0.67;89.46
61359;BME280;47228;46.762;23.598;2022-11-14T08:31:03;98326.92;;;0.69;89.65
61359;BME280;47228;46.762;23.598;2022-11-14T08:33:31;98328.65;;;0.74;89.89
61359;BME280;47228;46.762;23.598;2022-11-14T08:36:03;98330.60;;;0.80;90.30
61359;BME280;47228;46.762;23.598;2022-11-14T08:38:32;98335.56;;;0.86;90.35
61359;BME280;47228;46.762;23.598;2022-11-14T08:41:01;98333.98;;;0.93;90.42
61359;BME280;47228;46.762;23.598;2022-11-14T08:43:30;98326.70;;;1.00;90.16
61359;BME280;47228;46.762;23.598;2022-11-14T08:46:00;98326.64;;;1.05;90.07
61359;BME280;47228;46.762;23.598;2022-11-14T08:48:29;98319.38;;;1.11;90.09
61359;BME280;47228;46.762;23.598;2022-11-14T08:51:03;98315.04;;;1.18;90.14
61359;BME280;47228;46.762;23.598;2022-11-14T08:53:32;98313.97;;;1.23;89.98
61359;BME280;47228;46.762;23.598;2022-11-14T08:56:01;98307.59;;;1.26;90.06
61359;BME280;47228;46.762;23.598;2022-11-14T08:58:30;98303.71;;;1.29;89.84
61359;BME280;47228;46.762;23.598;2022-11-14T09:01:01;98297.38;;;1.32;89.64
61359;BME280;47228;46.762;23.598;2022-11-14T09:03:29;98298.28;;;1.34;89.59
61359;BME280;47228;46.762;23.598;2022-11-14T09:05:58;98299.05;;;1.39;89.87
61359;BME280;47228;46.762;23.598;2022-11-14T09:08:28;98301.97;;;1.45;90.08
61359;BME280;47228;46.762;23.598;2022-11-14T09:11:02;98297.91;;;1.50;90.00
61359;BME280;47228;46.762;23.598;2022-11-14T09:13:33;98293.94;;;1.53;90.01
61359;BME280;47228;46.762;23.598;2022-11-14T09:16:01;98290.02;;;1.59;90.19
61359;BME280;47228;46.762;23.598;2022-11-14T09:18:30;98287.74;;;1.66;90.22
61359;BME280;47228;46.762;23.598;2022-11-14T09:21:09;98288.05;;;1.71;90.10
61359;BME280;47228;46.762;23.598;2022-11-14T09:23:37;98279.56;;;1.74;89.90
61359;BME280;47228;46.762;23.598;2022-11-14T09:26:06;98278.77;;;1.76;89.73
61359;BME280;47228;46.762;23.598;2022-11-14T09:28:35;98276.60;;;1.79;89.66
61359;BME280;47228;46.762;23.598;2022-11-14T09:31:06;98266.90;;;1.82;89.67
61359;BME280;47228;46.762;23.598;2022-11-14T09:33:35;98265.67;;;1.86;89.79
61359;BME280;47228;46.762;23.598;2022-11-14T09:36:07;98263.16;;;1.91;89.80
61359;BME280;47228;46.762;23.598;2022-11-14T09:38:35;98263.23;;;1.92;89.07
61359;BME280;47228;46.762;23.598;2022-11-14T09:46:25;98261.52;;;1.84;89.10
61359;BME280;47228;46.762;23.598;2022-11-14T09:48:55;98256.95;;;1.84;89.13
61359;BME280;47228;46.762;23.598;2022-11-14T09:51:30;98259.91;;;1.86;89.44
61359;BME280;47228;46.762;23.598;2022-11-14T09:54:07;98255.25;;;1.90;89.84
61359;BME280;47228;46.762;23.598;2022-11-14T09:56:38;98251.30;;;1.96;89.91
61359;BME280;47228;46.762;23.598;2022-11-14T09:59:16;98247.08;;;1.98;89.70
61359;BME280;47228;46.762;23.598;2022-11-14T10:21:49;98218.46;;;1.93;88.81
61359;BME280;47228;46.762;23.598;2022-11-14T10:30:33;98209.27;;;2.01;90.26
61359;BME280;47228;46.762;23.598;2022-11-14T10:33:14;98208.90;;;2.08;90.18
61359;BME280;47228;46.762;23.598;2022-11-14T10:38:26;98204.42;;;2.11;89.57
61359;BME280;47228;46.762;23.598;2022-11-14T10:41:04;98200.77;;;2.13;90.21
61359;BME280;47228;46.762;23.598;2022-11-14T10:46:14;98201.00;;;2.29;90.71
61359;BME280;47228;46.762;23.598;2022-11-14T10:48:45;98198.23;;;2.39;90.74
61359;BME280;47228;46.762;23.598;2022-11-14T10:51:42;98197.72;;;2.48;90.62
61359;BME280;47228;46.762;23.598;2022-11-14T10:54:36;98193.69;;;2.56;90.52
61359;BME280;47228;46.762;23.598;2022-11-14T10:57:18;98185.99;;;2.67;90.62
61359;BME280;47228;46.762;23.598;2022-11-14T10:59:47;98182.70;;;2.75;90.32
61359;BME280;47228;46.762;23.598;2022-11-14T11:02:15;98181.80;;;2.79;90.18
61359;BME280;47228;46.762;23.598;2022-11-14T11:04:44;98182.84;;;2.81;89.74
61359;BME280;47228;46.762;23.598;2022-11-14T11:07:25;98185.39;;;2.84;89.65
61359;BME280;47228;46.762;23.598;2022-11-14T11:10:22;98186.04;;;2.87;89.52
61359;BME280;47228;46.762;23.598;2022-11-14T11:13:13;98183.23;;;2.89;89.78
61359;BME280;47228;46.762;23.598;2022-11-14T11:15:57;98181.33;;;2.91;89.69
61359;BME280;47228;46.762;23.598;2022-11-14T11:21:05;98175.29;;;2.94;89.87
61359;BME280;47228;46.762;23.598;2022-11-14T11:23:34;98174.77;;;2.98;90.06
61359;BME280;47228;46.762;23.598;2022-11-14T11:26:07;98173.65;;;3.05;90.17
61359;BME280;47228;46.762;23.598;2022-11-14T11:28:42;98170.02;;;3.10;89.98
61359;BME280;47228;46.762;23.598;2022-11-14T11:31:10;98164.55;;;3.13;90.07
61359;BME280;47228;46.762;23.598;2022-11-14T11:33:38;98158.50;;;3.16;89.90
61359;BME280;47228;46.762;23.598;2022-11-14T11:36:14;98161.27;;;3.14;89.52
61359;BME280;47228;46.762;23.598;2022-11-14T11:38:45;98166.34;;;3.12;89.32
61359;BME280;47228;46.762;23.598;2022-11-14T11:41:27;98166.67;;;3.10;89.49
61359;BME280;47228;46.762;23.598;2022-11-14T11:44:18;98161.98;;;3.14;89.94
61359;BME280;47228;46.762;23.598;2022-11-14T11:46:54;98157.07;;;3.20;90.20
61359;BME280;47228;46.762;23.598;2022-11-14T11:52:02;98150.91;;;3.29;89.72
61359;BME280;47228;46.762;23.598;2022-11-14T11:58:00;98138.36;;;3.36;89.85
61359;BME280;47228;46.762;23.598;2022-11-14T12:00:30;98134.24;;;3.41;90.02
61359;BME280;47228;46.762;23.598;2022-11-14T12:02:59;98130.65;;;3.46;90.15
61359;BME280;47228;46.762;23.598;2022-11-14T12:08:02;98127.73;;;3.51;89.53
61359;BME280;47228;46.762;23.598;2022-11-14T12:10:33;98124.33;;;3.52;89.37
61359;BME280;47228;46.762;23.598;2022-11-14T12:20:53;98115.44;;;3.66;89.64
61359;BME280;47228;46.762;23.598;2022-11-14T12:29:32;98117.74;;;3.75;89.07
61359;BME280;47228;46.762;23.598;2022-11-14T12:32:05;98117.11;;;3.74;89.03
61359;BME280;47228;46.762;23.598;2022-11-14T12:34:42;98116.64;;;3.71;88.92
61359;BME280;47228;46.762;23.598;2022-11-14T12:37:30;98114.00;;;3.68;88.82
61359;BME280;47228;46.762;23.598;2022-11-14T12:40:04;98112.76;;;3.62;88.75
61359;BME280;47228;46.762;23.598;2022-11-14T12:42:33;98113.12;;;3.62;89.33
61359;BME280;47228;46.762;23.598;2022-11-14T12:45:02;98105.70;;;3.65;89.69
61359;BME280;47228;46.762;23.598;2022-11-14T12:47:30;98111.76;;;3.69;89.77
61359;BME280;47228;46.762;23.598;2022-11-14T12:49:59;98109.48;;;3.73;89.62
61359;BME280;47228;46.762;23.598;2022-11-14T12:58:26;98104.48;;;3.84;89.70
61359;BME280;47228;46.762;23.598;2022-11-14T13:11:49;98100.67;;;3.89;88.97
61359;BME280;47228;46.762;23.598;2022-11-14T13:14:52;98100.54;;;3.91;89.17
61359;BME280;47228;46.762;23.598;2022-11-14T13:17:39;98099.08;;;3.93;89.43
61359;BME280;47228;46.762;23.598;2022-11-14T13:20:33;98097.98;;;3.96;89.37
61359;BME280;47228;46.762;23.598;2022-11-14T13:36:39;98087.76;;;3.86;89.11
61359;BME280;47228;46.762;23.598;2022-11-14T13:50:39;98083.12;;;3.97;89.52
61359;BME280;47228;46.762;23.598;2022-11-14T13:53:12;98081.13;;;3.96;89.28
61359;BME280;47228;46.762;23.598;2022-11-14T13:56:03;98080.38;;;3.89;88.87
61359;BME280;47228;46.762;23.598;2022-11-14T13:58:56;98078.73;;;3.80;88.88
61359;BME280;47228;46.762;23.598;2022-11-14T14:04:27;98078.50;;;3.69;89.44
61359;BME280;47228;46.762;23.598;2022-11-14T14:10:25;98075.69;;;3.65;90.19
61359;BME280;47228;46.762;23.598;2022-11-14T14:16:04;98079.24;;;3.59;90.36
61359;BME280;47228;46.762;23.598;2022-11-14T14:30:13;98067.74;;;3.58;91.23
61359;BME280;47228;46.762;23.598;2022-11-14T14:32:42;98070.16;;;3.64;91.50
61359;BME280;47228;46.762;23.598;2022-11-14T14:35:32;98067.33;;;3.68;91.05
61359;BME280;47228;46.762;23.598;2022-11-14T14:38:12;98064.79;;;3.69;91.04
61359;BME280;47228;46.762;23.598;2022-11-14T14:40:48;98066.16;;;3.71;90.79
61359;BME280;47228;46.762;23.598;2022-11-14T14:43:31;98064.94;;;3.70;90.52
61359;BME280;47228;46.762;23.598;2022-11-14T14:46:00;98059.79;;;3.69;90.67
61359;BME280;47228;46.762;23.598;2022-11-14T14:48:34;98057.57;;;3.68;90.91
61359;BME280;47228;46.762;23.598;2022-11-14T14:51:05;98052.71;;;3.66;90.64
61359;BME280;47228;46.762;23.598;2022-11-14T14:53:34;98049.02;;;3.62;90.52
61359;BME280;47228;46.762;23.598;2022-11-14T14:56:16;98049.48;;;3.59;90.60
61359;BME280;47228;46.762;23.598;2022-11-14T14:58:45;98050.26;;;3.54;90.41
61359;BME280;47228;46.762;23.598;2022-11-14T15:01:18;98050.97;;;3.52;90.98
61359;BME280;47228;46.762;23.598;2022-11-14T15:03:49;98054.20;;;3.51;90.82
61359;BME280;47228;46.762;23.598;2022-11-14T15:06:28;98048.40;;;3.52;91.42
61359;BME280;47228;46.762;23.598;2022-11-14T15:09:21;98046.05;;;3.52;91.72
61359;BME280;47228;46.762;23.598;2022-11-14T15:11:51;98043.27;;;3.56;91.49
61359;BME280;47228;46.762;23.598;2022-11-14T15:14:23;98044.37;;;3.59;91.36
61359;BME280;47228;46.762;23.598;2022-11-14T15:16:52;98044.58;;;3.59;91.05
61359;BME280;47228;46.762;23.598;2022-11-14T15:19:23;98042.30;;;3.61;91.57
61359;BME280;47228;46.762;23.598;2022-11-14T15:24:42;98033.42;;;3.71;91.72
61359;BME280;47228;46.762;23.598;2022-11-14T15:27:20;98031.28;;;3.76;91.63
61359;BME280;47228;46.762;23.598;2022-11-14T15:29:52;98032.62;;;3.80;91.54
61359;BME280;47228;46.762;23.598;2022-11-14T15:32:24;98031.39;;;3.84;91.11
61359;BME280;47228;46.762;23.598;2022-11-14T15:41:20;98033.27;;;3.83;90.68
61359;BME280;47228;46.762;23.598;2022-11-14T15:43:52;98036.21;;;3.80;90.53
61359;BME280;47228;46.762;23.598;2022-11-14T15:49:19;98037.02;;;3.76;90.20